createdAt,value
2018-02-17T00:01:19.617Z,23.77
2018-02-17T00:03:47.483Z,25.27
2018-02-17T00:06:15.235Z,24.63
2018-02-17T00:08:43.072Z,26.27
2018-02-17T00:11:12.313Z,26.97
2018-02-17T00:13:40.638Z,25.77
2018-02-17T00:16:10.510Z,25.03
2018-02-17T00:18:38.599Z,22.10
2018-02-17T00:21:06.487Z,21.77
2018-02-17T00:23:34.295Z,23.23
2018-02-17T00:26:02.819Z,30.47
2018-02-17T00:28:30.790Z,24.20
2018-02-17T00:30:58.660Z,23.30
2018-02-17T00:33:27.651Z,25.97
2018-02-17T00:35:55.620Z,22.00
2018-02-17T00:38:23.594Z,21.30
2018-02-17T00:40:51.546Z,20.90
2018-02-17T00:43:19.348Z,22.10
2018-02-17T00:45:47.206Z,22.13
2018-02-17T00:48:15.356Z,24.97
2018-02-17T00:50:43.449Z,23.70
2018-02-17T00:53:11.318Z,23.17
2018-02-17T00:55:39.267Z,25.40
2018-02-17T00:58:07.257Z,22.03
2018-02-17T01:00:35.232Z,22.93
2018-02-17T01:03:03.091Z,21.40
2018-02-17T01:05:31.043Z,24.50
2018-02-17T01:07:58.815Z,22.23
2018-02-17T01:10:27.190Z,23.40
2018-02-17T01:12:55.771Z,22.53
2018-02-17T01:15:24.484Z,22.27
2018-02-17T01:17:52.610Z,20.17
2018-02-17T01:20:20.809Z,22.03
2018-02-17T01:22:48.546Z,22.13
2018-02-17T01:25:16.473Z,22.60
2018-02-17T01:27:45.762Z,21.60
2018-02-17T01:30:13.609Z,23.83
2018-02-17T01:32:41.391Z,24.20
2018-02-17T01:35:09.255Z,27.43
2018-02-17T01:37:37.018Z,36.73
2018-02-17T01:40:04.979Z,45.10
2018-02-17T01:42:33.272Z,44.10
2018-02-17T01:45:01.445Z,24.13
2018-02-17T01:47:29.404Z,21.50
2018-02-17T01:49:57.295Z,23.83
2018-02-17T01:52:25.139Z,38.90
2018-02-17T01:54:53.408Z,24.00
2018-02-17T01:57:21.299Z,21.37
2018-02-17T01:59:49.162Z,20.87
2018-02-17T02:02:17.845Z,26.20
2018-02-17T02:04:45.700Z,20.17
2018-02-17T02:07:13.757Z,21.50
2018-02-17T02:09:41.549Z,22.90
2018-02-17T02:12:09.513Z,23.50
2018-02-17T02:14:37.495Z,22.80
2018-02-17T02:17:05.466Z,22.43
2018-02-17T02:19:33.321Z,29.53
2018-02-17T02:22:02.115Z,24.43
2018-02-17T02:24:30.067Z,25.37
2018-02-17T02:26:58.659Z,26.50
2018-02-17T02:29:27.043Z,30.00
2018-02-17T02:31:55.830Z,27.53
2018-02-17T02:34:23.792Z,24.13
2018-02-17T02:36:51.633Z,36.60
2018-02-17T02:39:19.530Z,24.60
2018-02-17T02:41:47.587Z,21.90
2018-02-17T02:44:15.448Z,24.40
2018-02-17T02:46:43.202Z,27.67
2018-02-17T02:49:12.006Z,21.37
2018-02-17T02:51:39.873Z,24.37
2018-02-17T02:54:07.762Z,22.43
2018-02-17T02:56:35.516Z,20.00
2018-02-17T02:59:03.350Z,22.37
2018-02-17T03:01:31.536Z,22.47
2018-02-17T03:03:59.667Z,27.47
2018-02-17T03:06:28.403Z,25.60
2018-02-17T03:08:56.481Z,25.00
2018-02-17T03:11:24.382Z,26.27
2018-02-17T03:13:53.043Z,20.90
2018-02-17T03:16:20.920Z,24.10
2018-02-17T03:18:49.076Z,27.00
2018-02-17T03:21:17.036Z,23.17
2018-02-17T03:23:44.814Z,21.70
2018-02-17T03:26:12.885Z,23.30
2018-02-17T03:28:41.471Z,21.70
2018-02-17T03:31:09.233Z,21.83
2018-02-17T03:33:37.144Z,21.23
2018-02-17T03:36:05.872Z,24.53
2018-02-17T03:38:33.841Z,27.10
2018-02-17T03:41:02.042Z,20.57
2018-02-17T03:43:30.698Z,21.07
2018-02-17T03:45:58.440Z,22.60
2018-02-17T03:48:26.349Z,24.37
2018-02-17T03:50:54.091Z,22.37
2018-02-17T03:53:21.982Z,22.93
2018-02-17T03:55:50.148Z,22.47
2018-02-17T03:58:18.118Z,22.73
2018-02-17T04:00:45.892Z,25.07
2018-02-17T04:03:14.443Z,19.70
2018-02-17T04:05:42.229Z,22.90
2018-02-17T04:08:10.279Z,22.83
2018-02-17T04:10:38.148Z,23.00
2018-02-17T04:13:05.932Z,23.90
2018-02-17T04:15:33.837Z,19.13
2018-02-17T04:18:02.383Z,24.03
2018-02-17T04:20:31.820Z,22.30
2018-02-17T04:23:00.506Z,20.87
2018-02-17T04:25:29.056Z,21.30
2018-02-17T04:27:57.963Z,18.70
2018-02-17T04:30:26.707Z,19.00
2018-02-17T04:32:54.504Z,20.93
2018-02-17T04:35:23.071Z,16.87
2018-02-17T04:37:50.939Z,17.10
2018-02-17T04:40:20.631Z,17.23
2018-02-17T04:43:03.264Z,16.40
2018-02-17T04:45:31.432Z,16.47
2018-02-17T04:48:03.890Z,18.30
2018-02-17T04:50:48.749Z,19.57
2018-02-17T04:53:22.576Z,24.30
2018-02-17T04:55:50.938Z,20.70
2018-02-17T04:58:22.998Z,21.47
2018-02-17T05:01:05.635Z,19.30
2018-02-17T05:03:39.212Z,19.03
2018-02-17T05:06:24.783Z,23.00
2018-02-17T05:08:55.596Z,18.87
2018-02-17T05:11:23.521Z,18.77
2018-02-17T05:13:51.679Z,21.60
2018-02-17T05:16:22.414Z,17.17
2018-02-17T05:18:51.315Z,19.47
2018-02-17T05:21:19.878Z,21.13
2018-02-17T05:23:49.807Z,19.07
2018-02-17T05:26:33.423Z,18.77
2018-02-17T05:29:03.664Z,19.60
2018-02-17T05:31:31.947Z,20.77
2018-02-17T05:34:06.141Z,19.70
2018-02-17T05:36:34.105Z,20.50
2018-02-17T05:39:11.913Z,22.43
2018-02-17T05:41:54.720Z,21.37
2018-02-17T05:44:28.418Z,24.07
2018-02-17T05:47:12.979Z,23.03
2018-02-17T05:49:40.864Z,23.87
2018-02-17T05:52:09.018Z,25.90
2018-02-17T05:54:36.810Z,28.00
2018-02-17T05:57:04.662Z,28.23
2018-02-17T05:59:32.513Z,27.70
2018-02-17T06:02:00.687Z,29.90
2018-02-17T06:04:28.752Z,25.60
2018-02-17T06:06:56.751Z,28.70
2018-02-17T06:09:24.605Z,30.03
2018-02-17T06:11:52.487Z,33.03
2018-02-17T06:14:21.961Z,35.33
2018-02-17T06:16:50.038Z,39.07
2018-02-17T06:19:18.023Z,33.60
2018-02-17T06:21:45.792Z,29.80
2018-02-17T06:24:13.649Z,32.80
2018-02-17T06:26:41.701Z,27.10
2018-02-17T06:29:09.468Z,30.30
2018-02-17T06:31:37.465Z,32.07
2018-02-17T06:34:05.208Z,40.40
2018-02-17T06:36:32.957Z,38.70
2018-02-17T06:39:00.959Z,31.13
2018-02-17T06:41:28.836Z,34.27
2018-02-17T06:43:56.774Z,24.47
2018-02-17T06:46:24.567Z,25.80
2018-02-17T06:48:52.497Z,33.20
2018-02-17T06:51:20.367Z,25.83
2018-02-17T06:53:48.251Z,29.37
2018-02-17T06:56:16.200Z,34.83
2018-02-17T06:58:44.085Z,31.03
2018-02-17T07:01:12.677Z,30.63
2018-02-17T07:03:40.696Z,30.20
2018-02-17T07:06:08.687Z,32.03
2018-02-17T07:08:36.860Z,29.37
2018-02-17T07:11:04.645Z,31.40
2018-02-17T07:13:32.511Z,31.00
2018-02-17T07:16:00.469Z,33.83
2018-02-17T07:18:28.246Z,32.37
2018-02-17T07:20:55.996Z,32.70
2018-02-17T07:23:24.084Z,27.53
2018-02-17T07:25:52.211Z,26.00
2018-02-17T07:28:20.203Z,23.47
2018-02-17T07:30:47.993Z,28.10
2018-02-17T07:33:16.747Z,23.30
2018-02-17T07:35:44.549Z,26.00
2018-02-17T07:38:12.307Z,25.97
2018-02-17T07:40:40.455Z,21.20
2018-02-17T07:43:08.322Z,23.30
2018-02-17T07:45:36.104Z,20.70
2018-02-17T07:48:04.362Z,24.30
2018-02-17T07:50:32.975Z,23.97
2018-02-17T07:53:01.032Z,25.90
2018-02-17T07:55:28.899Z,18.80
2018-02-17T07:57:56.766Z,20.10
2018-02-17T08:00:24.654Z,21.53
2018-02-17T08:02:52.422Z,19.77
2018-02-17T08:05:21.696Z,23.53
2018-02-17T08:07:49.680Z,24.80
2018-02-17T08:10:18.254Z,22.73
2018-02-17T08:12:46.097Z,19.17
2018-02-17T08:15:13.847Z,22.43
2018-02-17T08:17:42.105Z,23.17
2018-02-17T08:20:10.636Z,20.70
2018-02-17T08:22:38.509Z,20.93
2018-02-17T08:25:06.382Z,19.80
2018-02-17T08:27:34.318Z,23.80
2018-02-17T08:30:02.417Z,18.60
2018-02-17T08:32:31.760Z,20.73
2018-02-17T08:34:59.591Z,19.83
2018-02-17T08:37:27.527Z,20.30
2018-02-17T08:39:55.503Z,20.90
2018-02-17T08:42:23.383Z,19.80
2018-02-17T08:44:51.259Z,17.80
2018-02-17T08:47:19.304Z,16.70
2018-02-17T08:49:47.298Z,17.30
2018-02-17T08:52:16.549Z,17.13
2018-02-17T08:54:44.740Z,17.93
2018-02-17T08:57:12.858Z,17.87
2018-02-17T08:59:41.626Z,17.90
2018-02-17T09:02:09.489Z,16.47
2018-02-17T09:04:37.461Z,17.87
2018-02-17T09:07:05.436Z,15.30
2018-02-17T09:09:33.216Z,15.43
2018-02-17T09:12:01.485Z,16.80
2018-02-17T09:14:30.125Z,17.00
2018-02-17T09:16:57.898Z,16.30
2018-02-17T09:19:26.051Z,15.37
2018-02-17T09:21:54.149Z,16.37
2018-02-17T09:24:21.929Z,14.50
2018-02-17T09:26:49.691Z,15.37
2018-02-17T09:29:18.683Z,20.20
2018-02-17T09:31:46.553Z,19.10
2018-02-17T09:34:14.420Z,20.60
2018-02-17T09:36:43.110Z,18.93
2018-02-17T09:39:10.974Z,21.47
2018-02-17T09:41:38.913Z,20.50
2018-02-17T09:44:06.838Z,20.00
2018-02-17T09:46:35.388Z,21.70
2018-02-17T09:49:03.251Z,22.10
2018-02-17T09:51:31.345Z,23.97
2018-02-17T09:54:00.301Z,22.77
2018-02-17T09:56:28.186Z,22.23
2018-02-17T09:58:56.098Z,17.73
2018-02-17T10:01:23.891Z,24.20
2018-02-17T10:03:51.899Z,20.47
2018-02-17T10:06:19.663Z,17.10
2018-02-17T10:08:47.524Z,20.67
2018-02-17T10:11:15.503Z,18.20
2018-02-17T10:13:43.452Z,18.40
2018-02-17T10:16:11.939Z,19.63
2018-02-17T10:18:39.809Z,20.57
2018-02-17T10:21:08.160Z,18.53
2018-02-17T10:23:36.232Z,20.30
2018-02-17T10:26:04.300Z,16.80
2018-02-17T10:28:32.477Z,19.47
2018-02-17T10:31:01.272Z,19.13
2018-02-17T10:33:29.131Z,20.80
2018-02-17T10:35:56.922Z,17.30
2018-02-17T10:38:24.887Z,15.83
2018-02-17T10:40:52.882Z,16.13
2018-02-17T10:43:21.730Z,15.60
2018-02-17T10:45:49.799Z,16.90
2018-02-17T10:48:18.479Z,15.70
2018-02-17T10:50:46.347Z,15.80
2018-02-17T10:53:14.104Z,16.03
2018-02-17T10:55:41.907Z,15.17
2018-02-17T10:58:09.813Z,15.20
2018-02-17T11:00:37.588Z,17.73
2018-02-17T11:03:05.503Z,12.50
2018-02-17T11:05:33.428Z,14.10
2018-02-17T11:08:01.619Z,13.33
2018-02-17T11:10:29.601Z,15.00
2018-02-17T11:12:57.776Z,17.23
2018-02-17T11:15:26.428Z,18.70
2018-02-17T11:17:55.047Z,17.20
2018-02-17T11:20:22.913Z,15.27
2018-02-17T11:22:50.761Z,19.77
2018-02-17T11:25:18.656Z,15.73
2018-02-17T11:27:47.441Z,16.90
2018-02-17T11:30:15.278Z,17.27
2018-02-17T11:32:43.173Z,14.00
2018-02-17T11:35:11.638Z,15.07
2018-02-17T11:37:39.499Z,13.93
2018-02-17T11:40:07.566Z,11.23
2018-02-17T11:42:35.371Z,10.50
2018-02-17T11:45:03.944Z,11.93
2018-02-17T11:47:32.191Z,10.73
2018-02-17T11:50:00.290Z,10.33
2018-02-17T11:52:28.231Z,8.70
2018-02-17T11:54:56.526Z,11.67
2018-02-17T11:57:24.471Z,8.57
2018-02-17T11:59:52.256Z,12.50
2018-02-17T12:02:20.100Z,9.00
2018-02-17T12:04:48.276Z,12.30
2018-02-17T12:07:16.348Z,12.90
2018-02-17T12:09:46.743Z,11.27
2018-02-17T12:12:14.542Z,32.00
2018-02-17T12:14:42.305Z,27.13
2018-02-17T12:17:10.086Z,16.80
2018-02-17T12:19:38.958Z,25.50
2018-02-17T12:22:06.843Z,29.10
2018-02-17T12:24:35.100Z,16.73
2018-02-17T12:27:03.172Z,25.23
2018-02-17T12:29:31.890Z,17.53
2018-02-17T12:31:59.902Z,16.17
2018-02-17T12:34:27.910Z,13.47
2018-02-17T12:36:56.139Z,13.23
2018-02-17T12:39:23.982Z,18.43
2018-02-17T12:41:52.649Z,13.47
2018-02-17T12:44:20.613Z,15.67
2018-02-17T12:46:48.411Z,18.83
2018-02-17T12:49:17.041Z,23.30
2018-02-17T12:51:44.911Z,30.50
2018-02-17T12:54:12.988Z,12.67
2018-02-17T12:56:40.754Z,11.70
2018-02-17T12:59:08.756Z,13.80
2018-02-17T13:01:37.325Z,11.63
2018-02-17T13:04:06.731Z,12.93
2018-02-17T13:06:34.688Z,13.20
2018-02-17T13:09:02.583Z,9.10
2018-02-17T13:11:31.771Z,11.10
2018-02-17T13:14:00.442Z,9.13
2018-02-17T13:16:30.449Z,18.10
2018-02-17T13:18:58.310Z,17.60
2018-02-17T13:21:26.506Z,21.13
2018-02-17T13:23:55.395Z,17.57
2018-02-17T13:26:23.262Z,24.87
2018-02-17T13:28:51.405Z,23.60
2018-02-17T13:31:21.058Z,17.33
2018-02-17T13:33:49.730Z,23.63
2018-02-17T13:36:18.175Z,16.33
2018-02-17T13:38:46.044Z,21.73
2018-02-17T13:41:13.910Z,15.90
2018-02-17T13:43:42.008Z,21.37
2018-02-17T13:46:10.601Z,24.33
2018-02-17T13:48:39.351Z,26.90
2018-02-17T13:51:07.737Z,24.83
2018-02-17T13:53:36.535Z,23.60
2018-02-17T13:56:04.408Z,16.47
2018-02-17T13:58:32.289Z,15.23
2018-02-17T14:01:01.159Z,17.60
2018-02-17T14:03:28.957Z,16.83
2018-02-17T14:05:58.000Z,20.47
2018-02-17T14:08:26.695Z,18.33
2018-02-17T14:10:54.678Z,19.07
2018-02-17T14:13:22.622Z,22.30
2018-02-17T14:15:50.569Z,19.40
2018-02-17T14:18:18.383Z,19.73
2018-02-17T14:20:46.362Z,19.37
2018-02-17T14:23:14.301Z,17.20
2018-02-17T14:25:44.165Z,18.00
2018-02-17T14:28:15.000Z,14.80
2018-02-17T14:30:43.928Z,15.87
2018-02-17T14:33:12.928Z,14.80
2018-02-17T14:35:41.784Z,12.37
2018-02-17T14:38:12.601Z,13.50
2018-02-17T14:40:42.540Z,11.93
2018-02-17T14:43:11.129Z,13.13
2018-02-17T14:45:40.803Z,12.53
2018-02-17T14:48:08.861Z,11.23
2018-02-17T14:50:36.713Z,9.50
2018-02-17T14:53:04.576Z,11.40
2018-02-17T14:55:34.178Z,8.93
2018-02-17T14:58:02.162Z,9.60
2018-02-17T15:00:29.957Z,10.13
2018-02-17T15:02:58.610Z,7.93
2018-02-17T15:05:26.528Z,11.70
2018-02-17T15:07:54.528Z,10.27
2018-02-17T15:10:22.307Z,8.47
2018-02-17T15:12:50.585Z,9.90
2018-02-17T15:15:18.964Z,10.60
2018-02-17T15:17:47.342Z,11.10
2018-02-17T15:20:16.279Z,10.40
2018-02-17T15:22:45.028Z,11.57
2018-02-17T15:25:12.991Z,10.30
2018-02-17T15:27:41.268Z,11.90
2018-02-17T15:30:09.421Z,8.50
2018-02-17T15:32:37.425Z,9.00
2018-02-17T15:35:05.769Z,8.73
2018-02-17T15:37:33.534Z,9.67
2018-02-17T15:40:02.030Z,11.43
2018-02-17T15:42:29.905Z,9.20
2018-02-17T15:44:57.898Z,11.37
2018-02-17T15:47:27.248Z,10.63
2018-02-17T15:49:55.245Z,10.93
2018-02-17T15:52:24.625Z,11.83
2018-02-17T15:54:53.673Z,7.80
2018-02-17T15:57:22.489Z,7.70
2018-02-17T15:59:51.128Z,10.93
2018-02-17T16:02:19.689Z,9.40
2018-02-17T16:04:47.808Z,11.60
2018-02-17T16:07:16.532Z,8.57
2018-02-17T16:09:45.179Z,7.90
2018-02-17T16:12:15.584Z,8.73
2018-02-17T16:14:44.307Z,13.00
2018-02-17T16:17:12.477Z,9.40
2018-02-17T16:19:40.383Z,11.83
2018-02-17T16:22:08.554Z,9.77
2018-02-17T16:24:36.650Z,7.30
2018-02-17T16:27:05.736Z,10.50
2018-02-17T16:29:33.837Z,8.83
2018-02-17T16:32:02.601Z,8.60
2018-02-17T16:34:31.606Z,9.90
2018-02-17T16:37:00.373Z,9.63
2018-02-17T16:39:29.382Z,10.57
2018-02-17T16:41:58.098Z,11.13
2018-02-17T16:44:25.995Z,13.57
2018-02-17T16:46:54.167Z,11.50
2018-02-17T16:49:24.337Z,16.50
2018-02-17T16:51:55.277Z,11.80
2018-02-17T16:54:25.041Z,13.93
2018-02-17T16:56:55.395Z,10.93
2018-02-17T16:59:23.670Z,13.53
2018-02-17T17:01:51.774Z,13.30
2018-02-17T17:04:19.680Z,11.67
2018-02-17T17:06:48.325Z,15.17
2018-02-17T17:09:16.308Z,16.03
2018-02-17T17:11:44.712Z,13.37
2018-02-17T17:14:13.436Z,14.50
2018-02-17T17:16:42.404Z,17.27
2018-02-17T17:19:10.288Z,12.97
2018-02-17T17:21:38.675Z,13.20
2018-02-17T17:24:07.554Z,14.10
2018-02-17T17:26:35.800Z,12.37
2018-02-17T17:29:03.802Z,11.33
2018-02-17T17:31:32.094Z,11.37
2018-02-17T17:34:02.857Z,11.03
2018-02-17T17:36:30.764Z,12.90
2018-02-17T17:39:00.051Z,11.63
2018-02-17T17:41:27.933Z,11.33
2018-02-17T17:43:56.125Z,10.33
2018-02-17T17:46:24.262Z,9.90
2018-02-17T17:48:52.784Z,8.57
2018-02-17T17:51:21.634Z,7.87
2018-02-17T17:53:49.972Z,9.63
2018-02-17T17:56:18.294Z,9.77
2018-02-17T17:58:46.257Z,9.30
2018-02-17T18:01:16.063Z,9.03
2018-02-17T18:03:44.446Z,8.50
2018-02-17T18:06:13.341Z,8.53
2018-02-17T18:08:41.632Z,8.97
2018-02-17T18:11:11.786Z,10.27
2018-02-17T18:13:41.504Z,8.90
2018-02-17T18:16:11.116Z,15.17
2018-02-17T18:18:40.704Z,16.40
2018-02-17T18:21:10.375Z,13.50
2018-02-17T18:23:39.191Z,14.73
2018-02-17T18:26:07.588Z,17.73
2018-02-17T18:28:37.615Z,19.67
2018-02-17T18:31:06.188Z,19.10
2018-02-17T18:33:34.837Z,17.40
2018-02-17T18:36:02.789Z,20.90
2018-02-17T18:38:30.757Z,16.67
2018-02-17T18:40:58.827Z,18.87
2018-02-17T18:43:27.336Z,16.50
2018-02-17T18:45:55.479Z,23.90
2018-02-17T18:48:23.879Z,23.10
2018-02-17T18:50:52.019Z,23.00
2018-02-17T18:56:14.388Z,26.77
2018-02-17T18:58:42.522Z,33.87
2018-02-17T19:01:10.592Z,51.87
2018-02-17T19:03:39.356Z,43.90
2018-02-17T19:06:08.391Z,47.50
2018-02-17T19:08:36.382Z,52.37
2018-02-17T19:11:04.914Z,54.23
2018-02-17T19:13:34.062Z,55.80
2018-02-17T19:16:02.442Z,90.83
2018-02-17T19:18:30.498Z,97.00
2018-02-17T19:20:58.352Z,80.47
2018-02-17T19:23:26.395Z,91.07
2018-02-17T19:25:55.442Z,60.90
2018-02-17T19:28:23.445Z,55.10
2018-02-17T19:30:52.824Z,48.90
2018-02-17T19:33:21.292Z,46.53
2018-02-17T19:35:49.389Z,47.20
2018-02-17T19:38:17.667Z,40.50
2018-02-17T19:40:45.837Z,40.53
2018-02-17T19:43:13.988Z,38.50
2018-02-17T19:45:42.252Z,27.67
2018-02-17T19:48:10.148Z,32.53
2018-02-17T19:50:38.693Z,31.27
2018-02-17T19:53:06.448Z,29.30
2018-02-17T19:55:34.771Z,31.10
2018-02-17T19:58:02.746Z,27.93
2018-02-17T20:00:31.920Z,28.90
2018-02-17T20:03:00.022Z,31.93
2018-02-17T20:05:28.987Z,28.80
2018-02-17T20:07:57.304Z,29.07
2018-02-17T20:10:25.933Z,32.73
2018-02-17T20:12:54.341Z,28.00
2018-02-17T20:15:23.540Z,33.87
2018-02-17T20:17:51.798Z,31.83
2018-02-17T20:20:20.074Z,30.87
2018-02-17T20:22:48.352Z,40.90
2018-02-17T20:25:16.474Z,32.47
2018-02-17T20:27:44.907Z,36.00
2018-02-17T20:30:13.277Z,31.60
2018-02-17T20:32:41.834Z,39.27
2018-02-17T20:35:09.886Z,36.37
2018-02-17T20:37:38.832Z,36.90
2018-02-17T20:40:06.936Z,33.57
2018-02-17T20:42:36.613Z,47.87
2018-02-17T20:45:04.578Z,41.83
2018-02-17T20:47:32.512Z,43.00
2018-02-17T20:50:00.610Z,45.33
2018-02-17T20:52:29.199Z,43.63
2018-02-17T20:54:57.499Z,39.40
2018-02-17T20:57:25.907Z,46.63
2018-02-17T20:59:54.738Z,47.60
2018-02-17T21:02:22.818Z,45.40
2018-02-17T21:04:50.671Z,35.50
2018-02-17T21:07:18.467Z,34.27
2018-02-17T21:09:46.310Z,40.60
2018-02-17T21:12:14.981Z,37.37
2018-02-17T21:14:43.271Z,44.00
2018-02-17T21:17:11.397Z,33.73
2018-02-17T21:19:40.066Z,40.27
2018-02-17T21:22:08.507Z,37.40
2018-02-17T21:24:36.398Z,39.00
2018-02-17T21:27:04.649Z,39.63
2018-02-17T21:29:32.434Z,37.90
2018-02-17T21:32:02.080Z,43.73
2018-02-17T21:34:30.864Z,42.60
2018-02-17T21:36:59.394Z,41.63
2018-02-17T21:39:27.458Z,41.97
2018-02-17T21:41:55.533Z,42.13
2018-02-17T21:44:23.821Z,40.53
2018-02-17T21:46:52.086Z,33.90
2018-02-17T21:49:20.276Z,37.67
2018-02-17T21:51:48.242Z,39.97
2018-02-17T21:54:16.219Z,38.30
2018-02-17T21:56:44.375Z,39.70
2018-02-17T21:59:12.447Z,36.00
2018-02-17T22:01:40.313Z,34.87
2018-02-17T22:04:08.383Z,39.00
2018-02-17T22:06:36.251Z,34.50
2018-02-17T22:09:04.644Z,32.03
2018-02-17T22:11:33.002Z,40.50
2018-02-17T22:14:01.208Z,38.17
2018-02-17T22:16:29.759Z,31.03
2018-02-17T22:18:57.839Z,34.50
2018-02-17T22:21:26.006Z,47.07
2018-02-17T22:23:53.898Z,41.93
2018-02-17T22:26:21.971Z,49.93
2018-02-17T22:28:49.834Z,39.87
2018-02-17T22:31:17.776Z,32.40
2018-02-17T22:33:45.666Z,38.93
2018-02-17T22:36:13.692Z,41.53
2018-02-17T22:38:41.682Z,44.20
2018-02-17T22:41:10.267Z,37.23
2018-02-17T22:43:38.652Z,42.57
2018-02-17T22:46:06.542Z,41.80
2018-02-17T22:48:35.714Z,33.87
2018-02-17T22:51:04.906Z,42.27
2018-02-17T22:53:32.688Z,46.20
2018-02-17T22:56:00.944Z,41.23
2018-02-17T22:58:28.913Z,42.10
2018-02-17T23:00:56.741Z,41.70
2018-02-17T23:03:24.646Z,36.10
2018-02-17T23:05:52.622Z,44.27
2018-02-17T23:08:20.603Z,44.80
2018-02-17T23:10:48.556Z,41.00
2018-02-17T23:13:16.525Z,35.27
2018-02-17T23:15:44.422Z,47.90
2018-02-17T23:18:14.036Z,48.37
2018-02-17T23:20:42.807Z,49.30
2018-02-17T23:23:10.857Z,46.67
2018-02-17T23:25:38.653Z,43.87
2018-02-17T23:28:07.155Z,44.93
2018-02-17T23:30:35.885Z,47.90
2018-02-17T23:33:04.060Z,51.27
2018-02-17T23:35:31.929Z,59.93
2018-02-17T23:37:59.997Z,52.17
2018-02-17T23:40:27.993Z,56.60
2018-02-17T23:42:55.769Z,53.10
2018-02-17T23:45:23.748Z,56.70
2018-02-17T23:47:52.487Z,58.10
2018-02-17T23:50:20.280Z,58.17
2018-02-17T23:52:48.127Z,55.63
2018-02-17T23:55:16.128Z,56.50
2018-02-17T23:57:43.946Z,53.37
